Time;durP1;ratioP1;P1;durP2;ratioP2;P2;SDS_P1;SDS_P2;PMS_P1;PMS_P2;Temp;Humidity;BMP_temperature;BMP_pressure;BME280_temperature;BME280_humidity;BME280_pressure;Samples;Min_cycle;Max_cycle;Signal;HPM_P1;HPM_P2
2022/12/08 00:01:20;;;;;;;12.27;9.45;;;;;;;5.55;88.55;101176.84;5052832;28;20036;-47
2022/12/08 00:03:46;;;;;;;11.38;9.45;;;;;;;5.52;88.41;101172.50;5071471;28;20028;-51
2022/12/08 00:09:21;;;;;;;12.65;9.27;;;;;;;5.61;88.50;101172.09;5061493;28;20110;-48
2022/12/08 00:11:58;;;;;;;13.20;9.73;;;;;;;5.57;88.65;101170.16;5057112;28;20040;-45
2022/12/08 00:14:44;;;;;;;12.32;9.85;;;;;;;5.60;88.68;101165.22;5058027;28;20111;-46
2022/12/08 00:17:11;;;;;;;14.00;9.63;;;;;;;5.55;88.55;101157.31;5059389;28;20037;-47
2022/12/08 00:19:38;;;;;;;14.95;9.35;;;;;;;5.51;88.88;101154.53;5058499;28;20114;-49
2022/12/08 00:22:05;;;;;;;13.07;9.57;;;;;;;5.48;88.65;101142.50;5059466;28;20438;-47
2022/12/08 00:24:33;;;;;;;12.38;9.43;;;;;;;5.55;88.83;101151.34;5061938;28;20497;-47
2022/12/08 00:26:59;;;;;;;13.73;9.73;;;;;;;5.55;88.59;101141.16;5060205;28;20028;-46
2022/12/08 00:29:25;;;;;;;12.75;9.35;;;;;;;5.49;88.75;101135.72;5060166;28;20047;-48
2022/12/08 00:31:51;;;;;;;11.02;9.13;;;;;;;5.49;88.68;101140.81;5053619;28;20428;-48
2022/12/08 00:34:16;;;;;;;12.88;9.32;;;;;;;5.52;88.51;101140.97;5057540;28;20044;-48
2022/12/08 00:36:42;;;;;;;14.40;9.27;;;;;;;5.50;88.30;101137.47;5060758;28;20032;-47
2022/12/08 00:39:08;;;;;;;12.82;9.02;;;;;;;5.51;88.42;101129.03;5063968;28;20029;-48
2022/12/08 00:44:17;;;;;;;12.68;8.63;;;;;;;5.48;88.12;101128.88;5060800;28;20059;-50
2022/12/08 00:46:44;;;;;;;11.13;8.63;;;;;;;5.46;88.27;101133.00;5066115;28;20032;-47
2022/12/08 00:49:10;;;;;;;12.45;9.20;;;;;;;5.41;88.48;101129.34;5061832;28;20474;-45
2022/12/08 00:51:36;;;;;;;11.93;9.40;;;;;;;5.47;88.46;101119.47;5065736;28;20032;-48
2022/12/08 00:54:02;;;;;;;11.95;8.93;;;;;;;5.50;88.37;101114.50;5063602;28;20036;-46
2022/12/08 00:56:28;;;;;;;12.95;8.50;;;;;;;5.47;88.51;101116.94;5061712;28;20036;-45
2022/12/08 00:58:53;;;;;;;11.45;8.50;;;;;;;5.48;88.60;101118.69;5061637;28;20083;-45
2022/12/08 01:01:18;;;;;;;12.02;9.02;;;;;;;5.50;88.49;101109.41;5059951;28;20033;-45
2022/12/08 01:03:44;;;;;;;11.70;8.80;;;;;;;5.56;88.53;101112.28;5058485;28;20029;-45
2022/12/08 01:06:10;;;;;;;11.25;8.77;;;;;;;5.51;88.50;101106.06;5060481;28;20040;-46
2022/12/08 01:08:36;;;;;;;13.25;8.73;;;;;;;5.53;88.62;101109.59;5060406;28;20071;-46
2022/12/08 01:11:10;;;;;;;10.10;8.95;;;;;;;5.53;88.62;101107.91;5060659;28;20056;-49
2022/12/08 01:13:36;;;;;;;11.70;8.48;;;;;;;5.53;88.79;101107.03;5059636;28;20028;-46
2022/12/08 01:16:02;;;;;;;13.75;8.40;;;;;;;5.52;88.73;101102.72;5060306;28;20043;-49
2022/12/08 01:18:28;;;;;;;14.13;8.68;;;;;;;5.49;89.09;101108.53;5061151;28;20032;-48
2022/12/08 01:20:54;;;;;;;11.82;8.45;;;;;;;5.45;89.04;101105.75;5061128;28;20052;-49
2022/12/08 01:23:19;;;;;;;13.23;8.60;;;;;;;5.44;89.08;101107.41;5061268;28;20121;-49
2022/12/08 01:25:44;;;;;;;11.10;8.27;;;;;;;5.39;89.21;101107.16;5058650;28;20055;-47
2022/12/08 01:28:10;;;;;;;12.15;8.80;;;;;;;5.42;89.31;101103.06;5059336;28;20388;-47
2022/12/08 01:30:37;;;;;;;10.63;7.88;;;;;;;5.44;89.55;101107.41;5060470;28;20047;-48
2022/12/08 01:33:03;;;;;;;11.40;8.57;;;;;;;5.42;89.74;101111.56;5051813;28;20473;-49
2022/12/08 01:35:28;;;;;;;9.75;7.97;;;;;;;5.46;89.66;101099.84;5056453;28;20041;-49
2022/12/08 01:37:53;;;;;;;12.90;8.07;;;;;;;5.46;89.50;101103.28;5063784;28;20044;-45
2022/12/08 01:40:19;;;;;;;12.35;8.25;;;;;;;5.51;89.38;101106.06;5057785;28;20106;-48
2022/12/08 01:42:44;;;;;;;9.60;7.47;;;;;;;5.47;89.40;101099.94;5060419;28;20053;-45
2022/12/08 01:45:20;;;;;;;10.73;8.25;;;;;;;5.47;89.89;101099.06;5062456;28;20037;-48
2022/12/08 01:47:48;;;;;;;11.15;7.43;;;;;;;5.49;89.88;101100.88;5064303;28;20703;-48
2022/12/08 01:50:19;;;;;;;9.77;7.20;;;;;;;5.49;89.63;101095.78;5062622;28;20370;-47
2022/12/08 01:52:54;;;;;;;9.30;7.20;;;;;;;5.52;89.91;101085.75;5062291;28;20465;-45
2022/12/08 01:55:24;;;;;;;12.43;7.38;;;;;;;5.50;90.01;101081.38;5063972;28;20025;-49
2022/12/08 01:57:57;;;;;;;10.23;7.30;;;;;;;5.50;90.06;101084.78;5063501;28;20503;-49
2022/12/08 02:00:23;;;;;;;9.05;7.05;;;;;;;5.46;89.78;101082.00;5067969;28;20036;-50
2022/12/08 02:02:48;;;;;;;10.52;7.00;;;;;;;5.50;90.02;101082.22;5056304;28;20048;-46
2022/12/08 02:05:15;;;;;;;11.05;7.22;;;;;;;5.49;89.76;101074.50;5059022;28;20043;-49
2022/12/08 02:07:42;;;;;;;9.60;6.93;;;;;;;5.47;89.64;101061.69;5059485;28;20029;-46
2022/12/08 02:10:10;;;;;;;11.15;6.80;;;;;;;5.43;89.90;101069.09;5059518;28;20027;-49
2022/12/08 02:12:36;;;;;;;9.82;6.63;;;;;;;5.48;89.43;101072.75;5058584;28;20044;-48
2022/12/08 02:15:01;;;;;;;8.30;6.40;;;;;;;5.46;89.76;101057.38;5059326;28;20055;-49
2022/12/08 02:17:45;;;;;;;10.75;6.78;;;;;;;5.57;89.51;101057.91;5057851;28;20021;-48
2022/12/08 02:20:30;;;;;;;10.35;6.88;;;;;;;5.53;90.12;101061.13;5058670;28;20027;-47
2022/12/08 02:23:27;;;;;;;8.93;6.22;;;;;;;5.51;89.75;101060.16;5061332;28;20028;-49
2022/12/08 02:26:32;;;;;;;9.90;6.38;;;;;;;5.56;89.81;101061.28;5060744;28;20028;-48
2022/12/08 02:29:05;;;;;;;7.63;6.15;;;;;;;5.50;89.83;101059.28;5060526;28;20385;-47
2022/12/08 02:31:41;;;;;;;7.28;6.25;;;;;;;5.51;89.86;101045.72;5061739;28;20080;-46
2022/12/08 02:34:28;;;;;;;10.30;7.00;;;;;;;5.53;89.79;101038.19;5056026;28;20032;-48
2022/12/08 02:37:08;;;;;;;8.50;6.30;;;;;;;5.49;90.04;101034.56;5062421;28;20040;-48
2022/12/08 02:39:52;;;;;;;6.70;5.72;;;;;;;5.43;89.57;101036.81;5065512;28;20085;-46
2022/12/08 02:42:31;;;;;;;10.05;6.40;;;;;;;5.46;89.55;101031.88;5068680;28;20063;-47
2022/12/08 02:45:06;;;;;;;7.97;5.95;;;;;;;5.50;89.74;101028.69;5066473;28;20043;-50
2022/12/08 02:47:33;;;;;;;7.78;5.72;;;;;;;5.47;89.29;101030.22;5069399;28;20094;-49
2022/12/08 02:49:58;;;;;;;6.85;5.18;;;;;;;5.50;89.63;101020.16;5066684;28;20418;-46
2022/12/08 02:52:24;;;;;;;9.00;5.47;;;;;;;5.49;89.29;101015.84;5066394;28;20043;-44
2022/12/08 02:54:54;;;;;;;9.65;5.82;;;;;;;5.50;89.44;101017.59;5067218;28;20054;-47
2022/12/08 02:57:35;;;;;;;6.60;5.22;;;;;;;5.52;89.41;101010.88;5068445;28;20037;-47
2022/12/08 03:00:14;;;;;;;7.65;5.82;;;;;;;5.47;89.55;101007.25;5064659;28;20020;-46
2022/12/08 03:03:01;;;;;;;7.07;4.95;;;;;;;5.51;89.22;101015.13;5065143;28;20036;-45
2022/12/08 03:05:50;;;;;;;5.75;4.93;;;;;;;5.49;89.45;101033.72;5055340;28;20131;-47
2022/12/08 03:08:39;;;;;;;6.28;4.78;;;;;;;5.50;89.69;101022.69;5058135;28;20033;-47
2022/12/08 03:11:14;;;;;;;6.28;4.22;;;;;;;5.43;89.97;101018.09;5061720;28;20029;-48
2022/12/08 03:13:45;;;;;;;6.65;4.30;;;;;;;5.46;90.06;101020.78;5063356;28;20036;-47
2022/12/08 03:16:14;;;;;;;7.05;4.25;;;;;;;5.49;90.13;101018.41;5063859;28;20048;-47
2022/12/08 03:18:46;;;;;;;5.65;4.10;;;;;;;5.48;89.73;101020.06;5062268;28;20481;-46
2022/12/08 03:21:14;;;;;;;5.38;3.90;;;;;;;5.46;89.56;101013.13;5064624;28;20047;-49
2022/12/08 03:23:43;;;;;;;4.95;4.10;;;;;;;5.48;89.87;101014.09;5060995;28;20032;-48
2022/12/08 03:26:33;;;;;;;5.97;3.80;;;;;;;5.47;90.24;101002.16;5060056;28;20032;-46
2022/12/08 03:28:59;;;;;;;4.72;3.65;;;;;;;5.49;89.92;100987.78;5061459;28;20028;-48
2022/12/08 03:31:27;;;;;;;7.03;3.40;;;;;;;5.49;90.00;100988.66;5057384;28;20048;-46
2022/12/08 03:33:55;;;;;;;4.67;3.10;;;;;;;5.51;89.93;100989.63;5060301;28;20016;-47
2022/12/08 03:36:21;;;;;;;5.80;3.35;;;;;;;5.48;90.07;100981.81;5052962;28;20048;-45
2022/12/08 03:38:54;;;;;;;4.88;3.25;;;;;;;5.49;90.43;100972.50;5061819;28;20927;-49
2022/12/08 03:41:21;;;;;;;6.22;3.60;;;;;;;5.46;90.20;100972.31;5058356;28;20485;-49
2022/12/08 03:43:54;;;;;;;5.05;3.67;;;;;;;5.48;90.67;100976.72;5062146;28;20089;-47
2022/12/08 03:46:22;;;;;;;4.80;3.50;;;;;;;5.45;90.68;100973.13;5060433;28;20040;-53
2022/12/08 03:48:48;;;;;;;4.72;3.47;;;;;;;5.45;90.24;100968.03;5062025;28;20506;-46
2022/12/08 03:51:14;;;;;;;4.18;3.60;;;;;;;5.42;90.61;100967.88;5065189;28;20028;-49
2022/12/08 03:53:40;;;;;;;5.38;3.72;;;;;;;5.41;90.46;100966.16;5060978;28;22222;-49
2022/12/08 03:56:22;;;;;;;6.25;4.32;;;;;;;5.48;90.65;100965.66;5060536;28;20043;-44
2022/12/08 03:58:47;;;;;;;5.68;4.65;;;;;;;5.37;90.65;100957.44;5058877;28;20457;-44
2022/12/08 04:01:13;;;;;;;8.10;5.13;;;;;;;5.41;90.55;100945.75;5058650;28;20121;-49
2022/12/08 04:03:38;;;;;;;8.30;5.22;;;;;;;5.41;90.55;100953.41;5055085;28;20086;-48
2022/12/08 04:06:04;;;;;;;7.68;5.57;;;;;;;5.41;90.68;100945.75;5058650;28;20119;-49
2022/12/08 04:08:29;;;;;;;9.55;6.40;;;;;;;5.42;90.94;100952.59;5049772;28;20040;-46
2022/12/08 04:10:55;;;;;;;7.70;6.15;;;;;;;5.38;90.74;100944.78;5059167;28;20032;-45
2022/12/08 04:13:20;;;;;;;8.38;6.53;;;;;;;5.41;91.16;100950.84;5056999;28;20103;-50
2022/12/08 04:15:46;;;;;;;10.07;6.95;;;;;;;5.39;91.10;100941.41;5059806;28;20204;-47
2022/12/08 04:18:12;;;;;;;9.65;7.18;;;;;;;5.38;90.84;100939.66;5058209;28;20063;-49
2022/12/08 04:20:42;;;;;;;8.90;7.50;;;;;;;5.46;91.11;100939.16;5059868;28;20704;-48
2022/12/08 04:23:09;;;;;;;9.70;6.95;;;;;;;5.41;91.15;100933.88;5057751;28;20036;-47
2022/12/08 04:25:35;;;;;;;10.45;7.90;;;;;;;5.41;91.00;100928.75;5055939;28;20123;-50
2022/12/08 04:28:00;;;;;;;10.07;7.97;;;;;;;5.37;91.13;100931.94;5059280;28;20473;-46
2022/12/08 04:30:26;;;;;;;10.32;8.52;;;;;;;5.47;90.72;100930.75;5061937;28;20134;-47
2022/12/08 04:32:51;;;;;;;11.23;8.27;;;;;;;5.46;91.06;100937.53;5057188;28;20102;-45
2022/12/08 04:35:16;;;;;;;11.65;8.57;;;;;;;5.48;90.78;100941.00;5056860;28;20036;-47
2022/12/08 04:37:43;;;;;;;9.93;8.32;;;;;;;5.44;90.85;100938.22;5050899;28;20044;-48
2022/12/08 04:40:09;;;;;;;11.98;8.40;;;;;;;5.43;90.86;100944.13;5059423;28;20443;-48
2022/12/08 04:42:34;;;;;;;11.70;8.55;;;;;;;5.44;90.99;100944.19;5056745;28;20493;-48
2022/12/08 04:45:00;;;;;;;12.50;8.70;;;;;;;5.41;90.90;100933.00;5055688;28;20041;-45
2022/12/08 04:47:25;;;;;;;12.00;8.65;;;;;;;5.43;91.04;100927.16;5055721;28;20056;-47
2022/12/08 04:49:50;;;;;;;16.58;9.70;;;;;;;5.44;91.20;100928.03;5058594;28;20044;-48
2022/12/08 04:52:16;;;;;;;11.80;9.18;;;;;;;5.47;91.49;100926.53;5059885;28;20063;-45
2022/12/08 04:54:41;;;;;;;11.52;9.05;;;;;;;5.46;91.75;100926.41;5058677;28;20021;-47
2022/12/08 04:57:06;;;;;;;12.63;8.80;;;;;;;5.47;91.29;100936.72;5058831;28;20119;-47
2022/12/08 04:59:32;;;;;;;12.20;8.90;;;;;;;5.50;91.05;100928.34;5061747;28;20555;-46
2022/12/08 05:01:57;;;;;;;11.60;9.43;;;;;;;5.49;91.05;100935.09;5061196;28;20047;-47
2022/12/08 05:04:22;;;;;;;11.50;9.70;;;;;;;5.49;91.01;100936.78;5061563;28;20389;-47
2022/12/08 05:06:48;;;;;;;13.45;9.52;;;;;;;5.46;91.38;100931.53;5060184;28;20036;-47
2022/12/08 05:09:13;;;;;;;11.05;9.02;;;;;;;5.48;91.11;100937.59;5052318;28;20400;-48
2022/12/08 05:11:40;;;;;;;12.90;8.93;;;;;;;5.53;91.33;100943.81;5059848;28;20569;-45
2022/12/08 05:14:10;;;;;;;12.13;8.98;;;;;;;5.47;91.17;100934.16;5060333;28;20029;-47
2022/12/08 05:16:36;;;;;;;14.18;8.45;;;;;;;5.45;91.25;100930.66;5059051;28;20044;-49
2022/12/08 05:19:02;;;;;;;10.15;7.10;;;;;;;5.49;90.51;100935.09;5059166;28;20032;-49
2022/12/08 05:21:27;;;;;;;12.10;8.05;;;;;;;5.48;90.46;100940.16;5056893;28;20036;-48
2022/12/08 05:23:52;;;;;;;7.10;5.95;;;;;;;5.42;89.56;100935.59;5058938;28;20543;-50
2022/12/08 05:26:17;;;;;;;7.28;5.50;;;;;;;5.42;89.58;100937.28;5059738;28;20436;-48
2022/12/08 05:28:43;;;;;;;8.55;5.57;;;;;;;5.41;89.65;100938.09;5057344;28;20044;-48
2022/12/08 05:31:10;;;;;;;7.75;5.00;;;;;;;5.37;89.37;100927.72;5058714;28;20495;-47
2022/12/08 05:33:35;;;;;;;6.75;5.00;;;;;;;5.36;89.59;100933.63;5058751;28;20115;-46
2022/12/08 05:36:00;;;;;;;6.68;4.40;;;;;;;5.41;89.46;100927.91;5058566;28;20116;-50
2022/12/08 05:38:26;;;;;;;6.72;4.63;;;;;;;5.32;89.17;100926.63;5065097;28;20034;-44
2022/12/08 05:40:51;;;;;;;4.07;3.03;;;;;;;5.31;88.87;100916.34;5051314;28;20036;-46
2022/12/08 05:43:16;;;;;;;4.22;3.08;;;;;;;5.25;89.12;100916.03;5058733;28;20198;-48
2022/12/08 05:45:42;;;;;;;4.78;2.88;;;;;;;5.29;88.82;100903.53;5057009;28;20037;-47
2022/12/08 05:48:07;;;;;;;4.20;2.90;;;;;;;5.30;89.43;100910.38;5059255;28;20036;-45
2022/12/08 05:50:33;;;;;;;3.78;2.55;;;;;;;5.32;89.30;100913.88;5061853;28;20033;-48
2022/12/08 05:52:58;;;;;;;4.40;2.40;;;;;;;5.34;89.33;100907.19;5060548;28;20040;-47
2022/12/08 05:55:23;;;;;;;3.15;2.28;;;;;;;5.33;89.32;100902.88;5059224;28;20037;-46
2022/12/08 05:57:49;;;;;;;5.13;2.30;;;;;;;5.34;89.40;100902.09;5059882;28;20039;-47
2022/12/08 06:00:15;;;;;;;4.25;2.40;;;;;;;5.33;90.01;100907.97;5059087;28;20037;-47
2022/12/08 06:02:40;;;;;;;4.15;2.00;;;;;;;5.30;89.91;100907.81;5061375;28;21796;-47
2022/12/08 06:05:06;;;;;;;3.63;1.90;;;;;;;5.30;89.66;100905.28;5058879;28;20052;-50
2022/12/08 06:07:31;;;;;;;3.92;2.10;;;;;;;5.32;89.62;100903.66;5066039;28;20032;-47
2022/12/08 06:09:56;;;;;;;2.90;2.00;;;;;;;5.31;90.04;100901.91;5060351;28;20040;-44
2022/12/08 06:12:23;;;;;;;3.10;1.88;;;;;;;5.27;90.10;100896.59;5055144;28;20056;-46
2022/12/08 06:14:48;;;;;;;3.97;1.90;;;;;;;5.28;89.89;100901.78;5063475;28;20039;-46
2022/12/08 06:17:13;;;;;;;2.92;1.85;;;;;;;5.32;89.75;100897.69;5061923;28;20409;-44
2022/12/08 06:19:39;;;;;;;2.72;1.50;;;;;;;5.32;89.28;100901.13;5062198;28;20435;-49
2022/12/08 06:22:04;;;;;;;2.60;1.52;;;;;;;5.27;89.83;100905.09;5063662;28;20075;-48
2022/12/08 06:24:29;;;;;;;3.05;1.77;;;;;;;5.29;89.85;100897.56;5061820;28;20041;-46
2022/12/08 06:26:55;;;;;;;2.42;1.65;;;;;;;5.31;89.88;100895.94;5060540;28;20103;-45
2022/12/08 06:29:20;;;;;;;3.67;1.60;;;;;;;5.30;90.09;100895.06;5064922;28;20036;-47
2022/12/08 06:31:45;;;;;;;2.67;1.50;;;;;;;5.32;90.03;100884.94;5063597;28;20040;-45
2022/12/08 06:34:11;;;;;;;4.15;1.80;;;;;;;5.24;90.41;100887.13;5062843;28;20061;-49
2022/12/08 06:36:36;;;;;;;3.42;1.75;;;;;;;5.29;90.62;100882.25;5065723;28;20127;-45
2022/12/08 06:39:02;;;;;;;6.13;1.80;;;;;;;5.31;90.38;100894.28;5065584;28;20112;-47
2022/12/08 06:41:28;;;;;;;3.35;1.60;;;;;;;5.32;90.81;100882.41;5058439;28;20493;-48
2022/12/08 06:43:56;;;;;;;3.75;1.55;;;;;;;5.34;90.74;100885.91;5061954;28;20044;-48
2022/12/08 06:46:22;;;;;;;3.58;1.70;;;;;;;5.32;90.60;100895.16;5061914;28;20364;-47
2022/12/08 06:48:49;;;;;;;5.38;1.83;;;;;;;5.31;90.66;100898.50;5064773;28;20032;-48
2022/12/08 06:51:17;;;;;;;3.47;1.58;;;;;;;5.31;91.35;100894.28;5066805;28;20031;-49
2022/12/08 06:53:44;;;;;;;4.55;2.00;;;;;;;5.35;90.68;100891.09;5067450;28;20044;-48
2022/12/08 06:56:10;;;;;;;2.33;1.40;;;;;;;5.34;90.37;100896.13;5066561;28;20033;-48
2022/12/08 06:58:36;;;;;;;4.63;1.70;;;;;;;5.34;90.77;100883.38;5068549;28;20081;-49
2022/12/08 07:01:10;;;;;;;2.97;1.63;;;;;;;5.34;90.86;100896.13;5069374;28;20029;-45
2022/12/08 07:03:36;;;;;;;4.40;1.95;;;;;;;5.29;90.23;100878.03;5060883;28;20035;-46
2022/12/08 07:06:03;;;;;;;3.30;1.83;;;;;;;5.30;90.52;100884.00;5063292;28;20052;-49
2022/12/08 07:08:28;;;;;;;6.55;2.00;;;;;;;5.28;90.29;100880.53;5061633;28;20508;-49
2022/12/08 07:10:53;;;;;;;4.63;1.60;;;;;;;5.34;90.10;100883.38;5064986;28;20036;-46
2022/12/08 07:13:19;;;;;;;3.90;1.70;;;;;;;5.32;89.85;100892.59;5053384;28;20495;-46
2022/12/08 07:15:44;;;;;;;2.95;1.63;;;;;;;5.33;89.98;100887.56;5060448;28;20145;-47
2022/12/08 07:18:09;;;;;;;4.43;1.60;;;;;;;5.34;89.89;100876.59;5060811;28;20025;-46
2022/12/08 07:20:35;;;;;;;4.07;1.40;;;;;;;5.35;89.93;100883.44;5061258;28;20029;-44
2022/12/08 07:23:00;;;;;;;5.57;1.60;;;;;;;5.31;89.80;100886.63;5060034;28;20032;-44
2022/12/08 07:25:25;;;;;;;4.15;1.95;;;;;;;5.25;90.03;100896.53;5057796;28;20107;-45
2022/12/08 07:27:52;;;;;;;2.97;1.65;;;;;;;5.25;89.87;100895.66;5061024;28;20111;-48
2022/12/08 07:30:18;;;;;;;3.60;1.80;;;;;;;5.19;90.31;100895.34;5059006;28;20496;-49
2022/12/08 07:32:44;;;;;;;3.63;1.60;;;;;;;5.20;90.46;100897.97;5063677;28;20039;-47
2022/12/08 07:35:09;;;;;;;3.92;1.70;;;;;;;5.22;90.45;100888.72;5060184;28;20032;-52
2022/12/08 07:37:36;;;;;;;2.92;1.50;;;;;;;5.27;90.19;100889.81;5058168;28;20093;-44
2022/12/08 07:40:03;;;;;;;4.00;1.80;;;;;;;5.29;90.08;100897.56;5061161;28;20064;-48
2022/12/08 07:42:28;;;;;;;4.60;1.80;;;;;;;5.32;90.37;100885.81;5057341;28;20055;-41
2022/12/08 07:44:54;;;;;;;3.03;1.85;;;;;;;5.36;90.15;100884.31;5054228;28;20064;-46
2022/12/08 07:47:19;;;;;;;6.07;2.00;;;;;;;5.33;90.60;100889.25;5057719;28;20024;-45
2022/12/08 07:49:44;;;;;;;4.80;2.30;;;;;;;5.30;90.57;100891.66;5060377;28;20028;-48
2022/12/08 07:52:10;;;;;;;3.88;2.28;;;;;;;5.24;90.50;100897.31;5059924;28;20033;-49
2022/12/08 07:54:35;;;;;;;6.55;2.70;;;;;;;5.26;90.65;100907.59;5059004;28;20031;-47
2022/12/08 07:57:02;;;;;;;5.80;2.40;;;;;;;5.23;90.17;100903.22;5060786;28;20040;-45
2022/12/08 07:59:28;;;;;;;4.93;2.60;;;;;;;5.20;89.96;100903.06;5059003;28;20063;-47
2022/12/08 08:01:53;;;;;;;4.60;2.47;;;;;;;5.19;89.60;100905.53;5059335;28;20062;-52
2022/12/08 08:04:18;;;;;;;4.50;2.47;;;;;;;5.16;90.43;100898.63;5056928;28;20028;-48
2022/12/08 08:06:44;;;;;;;5.05;2.50;;;;;;;5.22;90.47;100895.50;5059508;28;20478;-48
2022/12/08 08:09:09;;;;;;;5.97;2.50;;;;;;;5.11;90.35;100893.28;5059948;28;20038;-49
2022/12/08 08:11:35;;;;;;;3.55;2.40;;;;;;;5.17;90.69;100900.38;5060518;28;20067;-49
2022/12/08 08:14:00;;;;;;;3.53;2.30;;;;;;;5.17;90.94;100899.50;5053596;28;20097;-46
2022/12/08 08:16:26;;;;;;;3.22;2.20;;;;;;;5.24;90.51;100911.75;5055184;28;20036;-44
2022/12/08 08:18:51;;;;;;;2.38;2.13;;;;;;;5.27;90.38;100907.66;5056198;28;20879;-47
2022/12/08 08:21:18;;;;;;;6.50;2.50;;;;;;;5.21;90.25;100909.03;5058500;28;20047;-51
2022/12/08 08:23:43;;;;;;;4.38;2.53;;;;;;;5.28;90.45;100906.00;5059247;28;20068;-48
2022/12/08 08:26:09;;;;;;;4.15;2.40;;;;;;;5.30;90.33;100904.41;5056918;28;20437;-48
2022/12/08 08:28:34;;;;;;;4.65;2.60;;;;;;;5.31;90.44;100908.69;5058209;28;20396;-46
2022/12/08 08:31:01;;;;;;;5.28;2.60;;;;;;;5.29;90.03;100911.19;5059789;28;20024;-44
2022/12/08 08:33:26;;;;;;;4.20;2.20;;;;;;;5.27;89.94;100909.34;5056765;28;20090;-43
2022/12/08 08:35:52;;;;;;;2.80;1.90;;;;;;;5.23;89.49;100903.22;5057232;28;20028;-52
2022/12/08 08:38:18;;;;;;;3.88;1.55;;;;;;;5.23;89.55;100903.22;5055511;28;20036;-45
2022/12/08 08:40:44;;;;;;;2.90;2.00;;;;;;;5.25;89.63;100905.84;5056192;28;20029;-46
2022/12/08 08:43:27;;;;;;;3.70;2.10;;;;;;;5.21;90.17;100909.91;5057225;28;20072;-46
2022/12/08 08:45:56;;;;;;;2.50;2.30;;;;;;;5.23;89.94;100902.34;5052643;28;20396;-44
2022/12/08 08:48:22;;;;;;;3.58;2.63;;;;;;;5.25;90.06;100901.63;5056409;28;20043;-44
2022/12/08 08:50:47;;;;;;;5.38;2.70;;;;;;;5.27;90.41;100905.09;5059684;28;20048;-43
2022/12/08 08:53:13;;;;;;;3.22;2.88;;;;;;;5.24;90.28;100906.66;5056832;28;20036;-43
2022/12/08 08:55:39;;;;;;;3.10;2.42;;;;;;;5.24;90.05;100910.06;5059673;28;20392;-46
2022/12/08 08:58:04;;;;;;;2.70;1.90;;;;;;;5.22;90.15;100906.56;5058502;28;20119;-42
2022/12/08 09:00:29;;;;;;;3.75;1.95;;;;;;;5.22;90.12;100906.56;5057642;28;20036;-46
2022/12/08 09:02:55;;;;;;;4.13;1.90;;;;;;;5.22;89.79;100905.72;5058257;28;20153;-46
2022/12/08 09:05:20;;;;;;;2.88;1.90;;;;;;;5.28;89.34;100906.00;5056816;28;20039;-46
2022/12/08 09:07:45;;;;;;;2.92;1.90;;;;;;;5.31;89.74;100912.13;5058909;28;20032;-44
2022/12/08 09:10:11;;;;;;;4.30;2.00;;;;;;;5.29;89.42;100898.44;5056707;28;20062;-44
2022/12/08 09:12:36;;;;;;;3.40;2.00;;;;;;;5.30;89.09;100900.19;5057249;28;20135;-48
2022/12/08 09:15:02;;;;;;;4.28;2.10;;;;;;;5.31;89.25;100908.69;5059290;28;20120;-47
2022/12/08 09:17:27;;;;;;;4.22;1.95;;;;;;;5.30;88.98;100900.19;5051439;28;20031;-52
2022/12/08 09:19:52;;;;;;;3.67;1.70;;;;;;;5.33;88.67;100896.88;5057395;28;20119;-45
2022/12/08 09:22:18;;;;;;;2.03;1.77;;;;;;;5.29;89.04;100903.53;5054627;28;20039;-44
2022/12/08 09:24:43;;;;;;;3.10;1.67;;;;;;;5.31;89.04;100899.38;5056018;28;20083;-47
2022/12/08 09:27:08;;;;;;;2.90;1.70;;;;;;;5.36;89.35;100894.50;5059737;28;20106;-48
2022/12/08 09:29:34;;;;;;;5.15;1.70;;;;;;;5.33;89.61;100895.22;5059102;28;20477;-48
2022/12/08 09:31:59;;;;;;;3.97;1.70;;;;;;;5.34;89.33;100891.91;5059891;28;20028;-46
2022/12/08 09:34:25;;;;;;;4.18;1.67;;;;;;;5.34;89.41;100897.00;5054256;28;20421;-44
2022/12/08 09:36:50;;;;;;;4.22;1.70;;;;;;;5.39;89.17;100897.19;5055648;28;20405;-42
2022/12/08 09:39:15;;;;;;;5.15;1.88;;;;;;;5.36;88.98;100899.59;5059292;28;20506;-45
2022/12/08 09:41:44;;;;;;;4.28;1.33;;;;;;;5.35;89.03;100896.19;5056419;28;20166;-47
2022/12/08 09:44:25;;;;;;;3.13;1.55;;;;;;;5.37;89.39;100894.56;5057714;28;20024;-47
2022/12/08 09:46:51;;;;;;;3.85;1.50;;;;;;;5.33;89.87;100885.00;5053724;28;20412;-44
2022/12/08 09:49:21;;;;;;;4.75;1.48;;;;;;;5.36;89.37;100886.84;5058230;28;20441;-47
2022/12/08 09:51:46;;;;;;;4.55;1.45;;;;;;;5.28;89.49;100889.03;5060500;28;20032;-44
2022/12/08 09:54:29;;;;;;;3.78;1.60;;;;;;;5.41;90.08;100885.41;5058557;28;20037;-46
2022/12/08 09:56:58;;;;;;;2.15;1.60;;;;;;;5.34;90.26;100888.47;5061481;28;20477;-46
2022/12/08 09:59:33;;;;;;;4.70;1.58;;;;;;;5.43;89.96;100888.03;5059172;28;20477;-43
2022/12/08 10:01:59;;;;;;;4.63;1.55;;;;;;;5.36;89.88;100891.97;5062142;28;20051;-46
2022/12/08 10:04:33;;;;;;;4.90;1.70;;;;;;;5.38;89.62;100885.25;5058463;28;20576;-45
2022/12/08 10:07:04;;;;;;;2.67;1.60;;;;;;;5.38;89.33;100888.66;5058710;28;20111;-48
2022/12/08 10:09:43;;;;;;;6.03;1.52;;;;;;;5.37;89.34;100884.38;5058881;28;20496;-46
2022/12/08 10:12:11;;;;;;;3.50;1.60;;;;;;;5.33;89.60;100879.91;5061405;28;20032;-47
2022/12/08 10:14:46;;;;;;;2.95;1.23;;;;;;;5.33;90.12;100879.03;5060957;28;20103;-45
2022/12/08 10:17:36;;;;;;;2.78;1.48;;;;;;;5.39;89.86;100879.34;5058269;28;20481;-47
2022/12/08 10:20:22;;;;;;;2.92;1.40;;;;;;;5.42;89.45;100878.63;5056539;28;20047;-48
2022/12/08 10:23:09;;;;;;;3.25;1.48;;;;;;;5.41;89.96;100879.44;5058351;28;20086;-44
2022/12/08 10:25:41;;;;;;;5.75;1.30;;;;;;;5.39;89.43;100876.78;5057982;28;20480;-48
2022/12/08 10:28:07;;;;;;;4.35;1.42;;;;;;;5.38;89.48;100872.50;5057457;28;20024;-48
2022/12/08 10:30:33;;;;;;;4.65;1.60;;;;;;;5.35;89.55;100867.25;5059996;28;20042;-46
2022/12/08 10:32:58;;;;;;;5.05;1.65;;;;;;;5.36;90.01;100874.09;5060426;28;20078;-49
2022/12/08 10:35:40;;;;;;;5.80;1.80;;;;;;;5.31;89.62;100868.78;5057402;28;21058;-45
2022/12/08 10:38:16;;;;;;;3.33;1.73;;;;;;;5.39;89.94;100870.00;5055433;28;20119;-46
2022/12/08 10:40:44;;;;;;;6.13;1.80;;;;;;;5.34;89.56;100858.75;5060509;28;20031;-46
2022/12/08 10:43:16;;;;;;;3.88;1.90;;;;;;;5.40;89.94;100858.16;5058124;28;20049;-47
2022/12/08 10:45:42;;;;;;;4.65;1.90;;;;;;;5.37;89.42;100858.88;5056493;28;20707;-46
2022/12/08 10:48:25;;;;;;;2.92;1.52;;;;;;;5.47;89.97;100854.25;5055169;28;20064;-44
2022/12/08 10:51:04;;;;;;;6.70;1.98;;;;;;;5.43;90.05;100859.97;5054724;28;20056;-43
2022/12/08 10:53:31;;;;;;;4.53;1.90;;;;;;;5.41;90.15;100861.59;5064479;28;20044;-47
2022/12/08 10:55:57;;;;;;;6.70;2.10;;;;;;;5.48;89.95;100855.97;5069588;28;20453;-47
2022/12/08 10:58:35;;;;;;;5.40;2.20;;;;;;;5.52;90.26;100855.31;5063658;28;20040;-46
2022/12/08 11:01:08;;;;;;;4.05;2.40;;;;;;;5.48;90.52;100853.44;5064645;28;20025;-45
2022/12/08 11:04:00;;;;;;;4.72;2.20;;;;;;;5.53;90.22;100851.97;5069314;28;20032;-47
2022/12/08 11:06:35;;;;;;;3.85;2.20;;;;;;;5.51;90.30;100853.56;5067284;28;20564;-43
2022/12/08 11:09:16;;;;;;;4.57;2.22;;;;;;;5.52;89.80;100855.31;5068331;28;20783;-44
2022/12/08 11:11:57;;;;;;;4.93;2.58;;;;;;;5.49;89.29;100850.06;5063587;28;20588;-47
2022/12/08 11:14:35;;;;;;;4.20;1.98;;;;;;;5.42;88.45;100850.59;5062707;28;20035;-47
2022/12/08 11:17:09;;;;;;;3.33;1.88;;;;;;;5.42;88.57;100850.59;5061989;28;20020;-50
2022/12/08 11:19:44;;;;;;;5.07;1.92;;;;;;;5.43;88.31;100852.34;5055039;28;20057;-44
2022/12/08 11:22:43;;;;;;;3.63;2.00;;;;;;;5.51;88.44;100849.34;5058264;28;20024;-46
2022/12/08 11:25:37;;;;;;;;;;;;;;;5.62;88.23;100847.31;5048641;28;20051;-45
2022/12/08 11:28:04;;;;;;;4.70;1.90;;;;;;;5.50;87.84;100845.03;5051505;28;19927;-42
2022/12/08 11:30:40;;;;;;;4.20;1.90;;;;;;;5.50;88.21;100833.97;5060198;28;20032;-45
2022/12/08 11:33:16;;;;;;;2.00;1.80;;;;;;;5.45;88.08;100832.88;5059361;28;20029;-44
2022/12/08 11:35:45;;;;;;;4.35;2.25;;;;;;;5.45;88.75;100837.97;5060971;28;20118;-44
2022/12/08 11:38:14;;;;;;;2.85;2.10;;;;;;;5.38;87.58;100827.47;5059710;28;20086;-44
2022/12/08 11:40:42;;;;;;;4.80;1.90;;;;;;;5.41;87.94;100825.91;5062483;28;20528;-47
2022/12/08 11:43:46;;;;;;;2.80;1.80;;;;;;;5.42;88.35;100828.50;5058429;28;20052;-47
2022/12/08 11:46:15;;;;;;;3.75;2.03;;;;;;;5.47;88.21;100826.19;5059675;28;20358;-47